sensor_id;sensor_type;location;lat;lon;timestamp;P1;durP1;ratioP1;P2;durP2;ratioP2
23068;SDS011;11702;50.856;4.348;2022-12-18T00:01:40;57.45;;;27.60;;
23068;SDS011;11702;50.856;4.348;2022-12-18T00:04:06;63.53;;;27.50;;
23068;SDS011;11702;50.856;4.348;2022-12-18T00:06:33;55.42;;;27.23;;
23068;SDS011;11702;50.856;4.348;2022-12-18T00:09:00;60.08;;;26.60;;
23068;SDS011;11702;50.856;4.348;2022-12-18T00:11:27;59.67;;;26.80;;
23068;SDS011;11702;50.856;4.348;2022-12-18T00:13:55;60.22;;;27.92;;
23068;SDS011;11702;50.856;4.348;2022-12-18T00:16:22;68.93;;;27.23;;
23068;SDS011;11702;50.856;4.348;2022-12-18T00:18:50;59.78;;;27.08;;
23068;SDS011;11702;50.856;4.348;2022-12-18T00:21:18;54.28;;;26.65;;
23068;SDS011;11702;50.856;4.348;2022-12-18T00:23:44;58.58;;;26.17;;
23068;SDS011;11702;50.856;4.348;2022-12-18T00:26:11;55.45;;;25.80;;
23068;SDS011;11702;50.856;4.348;2022-12-18T00:28:44;56.88;;;26.10;;
23068;SDS011;11702;50.856;4.348;2022-12-18T00:31:12;57.90;;;26.88;;
23068;SDS011;11702;50.856;4.348;2022-12-18T00:33:39;65.25;;;27.38;;
23068;SDS011;11702;50.856;4.348;2022-12-18T00:38:39;56.88;;;26.65;;
23068;SDS011;11702;50.856;4.348;2022-12-18T00:41:05;60.65;;;27.70;;
23068;SDS011;11702;50.856;4.348;2022-12-18T00:43:31;58.17;;;27.73;;
23068;SDS011;11702;50.856;4.348;2022-12-18T00:45:57;62.75;;;28.90;;
23068;SDS011;11702;50.856;4.348;2022-12-18T00:48:22;66.95;;;29.65;;
23068;SDS011;11702;50.856;4.348;2022-12-18T00:50:48;60.25;;;27.45;;
23068;SDS011;11702;50.856;4.348;2022-12-18T00:53:15;62.03;;;28.30;;
23068;SDS011;11702;50.856;4.348;2022-12-18T00:55:41;59.15;;;26.63;;
23068;SDS011;11702;50.856;4.348;2022-12-18T00:58:07;43.45;;;21.88;;
23068;SDS011;11702;50.856;4.348;2022-12-18T01:00:34;53.70;;;23.85;;
23068;SDS011;11702;50.856;4.348;2022-12-18T01:03:00;54.63;;;23.92;;
23068;SDS011;11702;50.856;4.348;2022-12-18T01:05:26;45.53;;;22.00;;
23068;SDS011;11702;50.856;4.348;2022-12-18T01:07:52;52.03;;;24.20;;
23068;SDS011;11702;50.856;4.348;2022-12-18T01:10:17;49.92;;;22.75;;
23068;SDS011;11702;50.856;4.348;2022-12-18T01:12:43;57.33;;;24.38;;
23068;SDS011;11702;50.856;4.348;2022-12-18T01:15:09;46.00;;;21.63;;
23068;SDS011;11702;50.856;4.348;2022-12-18T01:17:36;34.95;;;17.67;;
23068;SDS011;11702;50.856;4.348;2022-12-18T01:20:02;31.73;;;16.48;;
23068;SDS011;11702;50.856;4.348;2022-12-18T01:22:29;29.80;;;15.57;;
23068;SDS011;11702;50.856;4.348;2022-12-18T01:24:54;28.35;;;15.50;;
23068;SDS011;11702;50.856;4.348;2022-12-18T01:27:20;26.90;;;14.88;;
23068;SDS011;11702;50.856;4.348;2022-12-18T01:29:45;43.83;;;20.13;;
23068;SDS011;11702;50.856;4.348;2022-12-18T01:32:11;53.15;;;22.90;;
23068;SDS011;11702;50.856;4.348;2022-12-18T01:34:37;47.90;;;20.98;;
23068;SDS011;11702;50.856;4.348;2022-12-18T01:37:03;50.05;;;22.83;;
23068;SDS011;11702;50.856;4.348;2022-12-18T01:39:29;48.53;;;21.25;;
23068;SDS011;11702;50.856;4.348;2022-12-18T01:41:56;50.20;;;22.95;;
23068;SDS011;11702;50.856;4.348;2022-12-18T01:49:54;45.65;;;22.20;;
23068;SDS011;11702;50.856;4.348;2022-12-18T01:52:21;46.20;;;21.38;;
23068;SDS011;11702;50.856;4.348;2022-12-18T01:54:51;47.88;;;20.77;;
23068;SDS011;11702;50.856;4.348;2022-12-18T01:57:18;50.10;;;21.83;;
23068;SDS011;11702;50.856;4.348;2022-12-18T01:59:45;42.97;;;19.88;;
23068;SDS011;11702;50.856;4.348;2022-12-18T02:02:14;43.47;;;19.98;;
23068;SDS011;11702;50.856;4.348;2022-12-18T02:04:41;38.88;;;19.65;;
23068;SDS011;11702;50.856;4.348;2022-12-18T02:09:53;45.90;;;20.70;;
23068;SDS011;11702;50.856;4.348;2022-12-18T02:12:26;43.78;;;20.02;;
23068;SDS011;11702;50.856;4.348;2022-12-18T02:15:18;47.22;;;20.35;;
23068;SDS011;11702;50.856;4.348;2022-12-18T02:17:57;41.15;;;20.27;;
23068;SDS011;11702;50.856;4.348;2022-12-18T02:20:32;46.10;;;21.50;;
23068;SDS011;11702;50.856;4.348;2022-12-18T02:28:31;41.05;;;19.58;;
23068;SDS011;11702;50.856;4.348;2022-12-18T02:31:01;37.33;;;20.00;;
23068;SDS011;11702;50.856;4.348;2022-12-18T02:33:29;37.65;;;18.17;;
23068;SDS011;11702;50.856;4.348;2022-12-18T02:35:57;37.08;;;18.25;;
23068;SDS011;11702;50.856;4.348;2022-12-18T02:38:24;40.55;;;19.65;;
23068;SDS011;11702;50.856;4.348;2022-12-18T02:40:50;40.25;;;18.65;;
23068;SDS011;11702;50.856;4.348;2022-12-18T02:43:18;44.75;;;19.65;;
23068;SDS011;11702;50.856;4.348;2022-12-18T02:45:47;42.50;;;19.52;;
23068;SDS011;11702;50.856;4.348;2022-12-18T02:48:24;39.05;;;19.33;;
23068;SDS011;11702;50.856;4.348;2022-12-18T02:53:45;43.75;;;18.75;;
23068;SDS011;11702;50.856;4.348;2022-12-18T02:56:20;40.42;;;18.10;;
23068;SDS011;11702;50.856;4.348;2022-12-18T03:01:30;43.30;;;17.23;;
23068;SDS011;11702;50.856;4.348;2022-12-18T03:04:07;42.15;;;18.83;;
23068;SDS011;11702;50.856;4.348;2022-12-18T03:06:40;42.47;;;19.70;;
23068;SDS011;11702;50.856;4.348;2022-12-18T03:09:13;42.28;;;18.35;;
23068;SDS011;11702;50.856;4.348;2022-12-18T03:11:44;38.72;;;17.83;;
23068;SDS011;11702;50.856;4.348;2022-12-18T03:14:34;37.17;;;17.20;;
23068;SDS011;11702;50.856;4.348;2022-12-18T03:17:03;41.65;;;18.75;;
23068;SDS011;11702;50.856;4.348;2022-12-18T03:19:32;39.37;;;17.83;;
23068;SDS011;11702;50.856;4.348;2022-12-18T03:22:00;39.35;;;18.77;;
23068;SDS011;11702;50.856;4.348;2022-12-18T03:24:28;35.83;;;17.10;;
23068;SDS011;11702;50.856;4.348;2022-12-18T03:26:57;43.28;;;16.92;;
23068;SDS011;11702;50.856;4.348;2022-12-18T03:29:27;31.70;;;16.35;;
23068;SDS011;11702;50.856;4.348;2022-12-18T03:31:58;36.75;;;17.58;;
23068;SDS011;11702;50.856;4.348;2022-12-18T03:34:30;35.42;;;16.50;;
23068;SDS011;11702;50.856;4.348;2022-12-18T03:36:58;35.75;;;16.08;;
23068;SDS011;11702;50.856;4.348;2022-12-18T03:39:24;38.67;;;17.38;;
23068;SDS011;11702;50.856;4.348;2022-12-18T03:41:59;30.92;;;16.05;;
23068;SDS011;11702;50.856;4.348;2022-12-18T03:50:49;37.30;;;17.55;;
23068;SDS011;11702;50.856;4.348;2022-12-18T03:53:32;36.72;;;15.13;;
23068;SDS011;11702;50.856;4.348;2022-12-18T03:56:17;34.78;;;16.25;;
23068;SDS011;11702;50.856;4.348;2022-12-18T03:58:45;34.83;;;16.85;;
23068;SDS011;11702;50.856;4.348;2022-12-18T04:01:14;33.17;;;16.50;;
23068;SDS011;11702;50.856;4.348;2022-12-18T04:03:42;32.50;;;15.30;;
23068;SDS011;11702;50.856;4.348;2022-12-18T04:06:11;32.35;;;16.08;;
23068;SDS011;11702;50.856;4.348;2022-12-18T04:08:38;33.95;;;14.93;;
23068;SDS011;11702;50.856;4.348;2022-12-18T04:11:05;31.83;;;14.73;;
23068;SDS011;11702;50.856;4.348;2022-12-18T04:13:35;31.45;;;14.93;;
23068;SDS011;11702;50.856;4.348;2022-12-18T04:16:02;30.02;;;14.90;;
23068;SDS011;11702;50.856;4.348;2022-12-18T04:18:28;29.67;;;14.68;;
23068;SDS011;11702;50.856;4.348;2022-12-18T04:20:54;33.97;;;15.55;;
23068;SDS011;11702;50.856;4.348;2022-12-18T04:23:20;33.38;;;15.93;;
23068;SDS011;11702;50.856;4.348;2022-12-18T04:25:46;31.38;;;14.70;;
23068;SDS011;11702;50.856;4.348;2022-12-18T04:28:12;30.33;;;14.77;;
23068;SDS011;11702;50.856;4.348;2022-12-18T04:30:38;30.65;;;14.55;;
23068;SDS011;11702;50.856;4.348;2022-12-18T04:33:05;36.65;;;16.13;;
23068;SDS011;11702;50.856;4.348;2022-12-18T04:35:37;25.95;;;14.07;;
23068;SDS011;11702;50.856;4.348;2022-12-18T04:38:03;29.23;;;14.85;;
23068;SDS011;11702;50.856;4.348;2022-12-18T04:40:30;30.50;;;14.85;;
23068;SDS011;11702;50.856;4.348;2022-12-18T04:42:55;32.70;;;13.98;;
23068;SDS011;11702;50.856;4.348;2022-12-18T04:45:21;33.42;;;14.35;;
23068;SDS011;11702;50.856;4.348;2022-12-18T04:47:46;30.42;;;14.45;;
23068;SDS011;11702;50.856;4.348;2022-12-18T04:50:12;31.58;;;13.43;;
23068;SDS011;11702;50.856;4.348;2022-12-18T04:52:37;29.60;;;13.90;;
23068;SDS011;11702;50.856;4.348;2022-12-18T04:55:03;28.95;;;13.65;;
23068;SDS011;11702;50.856;4.348;2022-12-18T04:57:29;27.27;;;13.32;;
23068;SDS011;11702;50.856;4.348;2022-12-18T04:59:54;30.08;;;14.57;;
23068;SDS011;11702;50.856;4.348;2022-12-18T05:02:20;27.48;;;13.43;;
23068;SDS011;11702;50.856;4.348;2022-12-18T05:04:45;27.52;;;13.20;;
23068;SDS011;11702;50.856;4.348;2022-12-18T05:07:11;22.60;;;12.88;;
23068;SDS011;11702;50.856;4.348;2022-12-18T05:09:36;23.83;;;12.43;;
23068;SDS011;11702;50.856;4.348;2022-12-18T05:12:02;29.17;;;14.10;;
23068;SDS011;11702;50.856;4.348;2022-12-18T05:14:28;29.70;;;13.82;;
23068;SDS011;11702;50.856;4.348;2022-12-18T05:16:54;27.67;;;13.15;;
23068;SDS011;11702;50.856;4.348;2022-12-18T05:19:20;24.67;;;12.30;;
23068;SDS011;11702;50.856;4.348;2022-12-18T05:21:45;25.17;;;12.50;;
23068;SDS011;11702;50.856;4.348;2022-12-18T05:24:11;27.73;;;13.88;;
23068;SDS011;11702;50.856;4.348;2022-12-18T05:26:36;28.13;;;13.70;;
23068;SDS011;11702;50.856;4.348;2022-12-18T05:29:02;26.27;;;12.77;;
23068;SDS011;11702;50.856;4.348;2022-12-18T05:31:27;23.40;;;12.60;;
23068;SDS011;11702;50.856;4.348;2022-12-18T05:33:53;27.63;;;13.65;;
23068;SDS011;11702;50.856;4.348;2022-12-18T05:36:20;32.13;;;13.40;;
23068;SDS011;11702;50.856;4.348;2022-12-18T05:38:45;27.58;;;13.60;;
23068;SDS011;11702;50.856;4.348;2022-12-18T05:41:11;29.15;;;13.98;;
23068;SDS011;11702;50.856;4.348;2022-12-18T05:43:37;27.45;;;13.82;;
23068;SDS011;11702;50.856;4.348;2022-12-18T05:46:04;26.83;;;11.88;;
23068;SDS011;11702;50.856;4.348;2022-12-18T05:48:31;25.30;;;12.43;;
23068;SDS011;11702;50.856;4.348;2022-12-18T05:51:02;24.75;;;12.45;;
23068;SDS011;11702;50.856;4.348;2022-12-18T05:53:32;24.38;;;12.35;;
23068;SDS011;11702;50.856;4.348;2022-12-18T05:56:04;29.35;;;13.13;;
23068;SDS011;11702;50.856;4.348;2022-12-18T05:58:32;27.50;;;12.43;;
23068;SDS011;11702;50.856;4.348;2022-12-18T06:00:58;22.52;;;12.02;;
23068;SDS011;11702;50.856;4.348;2022-12-18T06:03:38;22.45;;;11.30;;
23068;SDS011;11702;50.856;4.348;2022-12-18T06:06:04;31.10;;;12.93;;
23068;SDS011;11702;50.856;4.348;2022-12-18T06:08:37;28.40;;;12.13;;
23068;SDS011;11702;50.856;4.348;2022-12-18T06:11:02;23.67;;;11.38;;
23068;SDS011;11702;50.856;4.348;2022-12-18T06:13:28;25.50;;;11.68;;
23068;SDS011;11702;50.856;4.348;2022-12-18T06:15:53;28.02;;;12.15;;
23068;SDS011;11702;50.856;4.348;2022-12-18T06:18:19;25.58;;;12.40;;
23068;SDS011;11702;50.856;4.348;2022-12-18T06:20:45;23.80;;;12.55;;
23068;SDS011;11702;50.856;4.348;2022-12-18T06:23:10;23.70;;;11.35;;
23068;SDS011;11702;50.856;4.348;2022-12-18T06:25:37;23.75;;;12.25;;
23068;SDS011;11702;50.856;4.348;2022-12-18T06:28:03;23.70;;;12.00;;
23068;SDS011;11702;50.856;4.348;2022-12-18T06:30:29;26.48;;;12.20;;
23068;SDS011;11702;50.856;4.348;2022-12-18T06:32:55;27.55;;;12.73;;
23068;SDS011;11702;50.856;4.348;2022-12-18T06:35:20;23.58;;;11.88;;
23068;SDS011;11702;50.856;4.348;2022-12-18T06:37:46;24.23;;;11.57;;
23068;SDS011;11702;50.856;4.348;2022-12-18T06:40:11;25.63;;;11.52;;
23068;SDS011;11702;50.856;4.348;2022-12-18T06:42:37;26.33;;;12.32;;
23068;SDS011;11702;50.856;4.348;2022-12-18T06:45:03;24.33;;;12.07;;
23068;SDS011;11702;50.856;4.348;2022-12-18T06:47:28;24.58;;;11.40;;
23068;SDS011;11702;50.856;4.348;2022-12-18T06:49:54;22.88;;;11.82;;
23068;SDS011;11702;50.856;4.348;2022-12-18T06:52:19;23.02;;;11.52;;
23068;SDS011;11702;50.856;4.348;2022-12-18T06:54:45;22.67;;;12.07;;
23068;SDS011;11702;50.856;4.348;2022-12-18T06:57:11;26.30;;;11.45;;
23068;SDS011;11702;50.856;4.348;2022-12-18T06:59:36;21.38;;;11.88;;
23068;SDS011;11702;50.856;4.348;2022-12-18T07:02:02;24.95;;;12.65;;
23068;SDS011;11702;50.856;4.348;2022-12-18T07:04:30;22.10;;;10.88;;
23068;SDS011;11702;50.856;4.348;2022-12-18T07:06:56;25.77;;;10.95;;
23068;SDS011;11702;50.856;4.348;2022-12-18T07:09:22;21.55;;;11.02;;
23068;SDS011;11702;50.856;4.348;2022-12-18T07:11:48;20.25;;;10.52;;
23068;SDS011;11702;50.856;4.348;2022-12-18T07:14:14;24.48;;;11.57;;
23068;SDS011;11702;50.856;4.348;2022-12-18T07:16:39;19.38;;;10.15;;
23068;SDS011;11702;50.856;4.348;2022-12-18T07:19:05;20.65;;;9.75;;
23068;SDS011;11702;50.856;4.348;2022-12-18T07:21:31;21.23;;;10.35;;
23068;SDS011;11702;50.856;4.348;2022-12-18T07:23:56;21.23;;;9.90;;
23068;SDS011;11702;50.856;4.348;2022-12-18T07:26:22;21.50;;;9.95;;
23068;SDS011;11702;50.856;4.348;2022-12-18T07:28:48;21.30;;;10.25;;
23068;SDS011;11702;50.856;4.348;2022-12-18T07:31:16;18.80;;;10.32;;
23068;SDS011;11702;50.856;4.348;2022-12-18T07:33:43;24.17;;;10.38;;
23068;SDS011;11702;50.856;4.348;2022-12-18T07:36:09;19.25;;;9.40;;
23068;SDS011;11702;50.856;4.348;2022-12-18T07:38:36;22.92;;;9.80;;
23068;SDS011;11702;50.856;4.348;2022-12-18T07:41:05;17.80;;;9.45;;
23068;SDS011;11702;50.856;4.348;2022-12-18T07:43:33;20.10;;;9.82;;
23068;SDS011;11702;50.856;4.348;2022-12-18T07:45:59;16.52;;;8.88;;
23068;SDS011;11702;50.856;4.348;2022-12-18T07:48:25;14.68;;;7.70;;
23068;SDS011;11702;50.856;4.348;2022-12-18T07:50:51;19.73;;;9.65;;
23068;SDS011;11702;50.856;4.348;2022-12-18T07:53:17;16.80;;;10.02;;
23068;SDS011;11702;50.856;4.348;2022-12-18T07:55:42;16.40;;;8.65;;
23068;SDS011;11702;50.856;4.348;2022-12-18T07:58:08;20.05;;;9.50;;
23068;SDS011;11702;50.856;4.348;2022-12-18T08:00:34;22.30;;;9.88;;
23068;SDS011;11702;50.856;4.348;2022-12-18T08:03:00;22.33;;;9.63;;
23068;SDS011;11702;50.856;4.348;2022-12-18T08:05:26;25.88;;;10.48;;
23068;SDS011;11702;50.856;4.348;2022-12-18T08:07:52;19.55;;;8.85;;
23068;SDS011;11702;50.856;4.348;2022-12-18T08:10:19;16.38;;;9.30;;
23068;SDS011;11702;50.856;4.348;2022-12-18T08:12:45;19.67;;;8.63;;
23068;SDS011;11702;50.856;4.348;2022-12-18T08:15:14;14.98;;;8.68;;
23068;SDS011;11702;50.856;4.348;2022-12-18T08:17:40;17.30;;;9.00;;
23068;SDS011;11702;50.856;4.348;2022-12-18T08:20:06;19.42;;;9.07;;
23068;SDS011;11702;50.856;4.348;2022-12-18T08:22:33;15.75;;;7.72;;
23068;SDS011;11702;50.856;4.348;2022-12-18T08:25:02;19.08;;;8.35;;
23068;SDS011;11702;50.856;4.348;2022-12-18T08:27:28;19.60;;;9.00;;
23068;SDS011;11702;50.856;4.348;2022-12-18T08:29:54;13.20;;;7.63;;
23068;SDS011;11702;50.856;4.348;2022-12-18T08:32:20;19.55;;;9.60;;
23068;SDS011;11702;50.856;4.348;2022-12-18T08:34:45;18.90;;;9.15;;
23068;SDS011;11702;50.856;4.348;2022-12-18T08:37:11;17.70;;;8.57;;
23068;SDS011;11702;50.856;4.348;2022-12-18T08:39:37;17.58;;;8.25;;
23068;SDS011;11702;50.856;4.348;2022-12-18T08:42:02;15.60;;;7.28;;
23068;SDS011;11702;50.856;4.348;2022-12-18T08:44:47;17.40;;;7.90;;
23068;SDS011;11702;50.856;4.348;2022-12-18T08:47:13;13.68;;;6.95;;
23068;SDS011;11702;50.856;4.348;2022-12-18T08:49:39;15.60;;;7.07;;
23068;SDS011;11702;50.856;4.348;2022-12-18T08:52:05;13.07;;;7.35;;
23068;SDS011;11702;50.856;4.348;2022-12-18T08:54:31;15.35;;;7.50;;
23068;SDS011;11702;50.856;4.348;2022-12-18T08:56:56;14.95;;;7.75;;
23068;SDS011;11702;50.856;4.348;2022-12-18T08:59:22;16.63;;;7.28;;
23068;SDS011;11702;50.856;4.348;2022-12-18T09:01:48;12.27;;;7.07;;
23068;SDS011;11702;50.856;4.348;2022-12-18T09:04:14;12.80;;;6.63;;
23068;SDS011;11702;50.856;4.348;2022-12-18T09:06:40;13.32;;;7.07;;
23068;SDS011;11702;50.856;4.348;2022-12-18T09:09:06;13.32;;;6.72;;
23068;SDS011;11702;50.856;4.348;2022-12-18T09:11:32;13.07;;;6.68;;
23068;SDS011;11702;50.856;4.348;2022-12-18T09:13:59;12.02;;;6.53;;
23068;SDS011;11702;50.856;4.348;2022-12-18T09:16:26;11.27;;;6.25;;
23068;SDS011;11702;50.856;4.348;2022-12-18T09:18:56;12.48;;;6.63;;
23068;SDS011;11702;50.856;4.348;2022-12-18T09:21:26;12.63;;;7.32;;
23068;SDS011;11702;50.856;4.348;2022-12-18T09:23:54;15.43;;;7.90;;
23068;SDS011;11702;50.856;4.348;2022-12-18T09:26:21;13.13;;;7.00;;
23068;SDS011;11702;50.856;4.348;2022-12-18T09:28:47;17.00;;;8.77;;
23068;SDS011;11702;50.856;4.348;2022-12-18T09:31:13;13.25;;;7.20;;
23068;SDS011;11702;50.856;4.348;2022-12-18T09:33:40;12.27;;;7.20;;
23068;SDS011;11702;50.856;4.348;2022-12-18T09:36:07;12.70;;;6.97;;
23068;SDS011;11702;50.856;4.348;2022-12-18T09:38:34;15.63;;;7.50;;
23068;SDS011;11702;50.856;4.348;2022-12-18T09:41:03;15.32;;;8.02;;
23068;SDS011;11702;50.856;4.348;2022-12-18T09:43:57;13.07;;;7.30;;
23068;SDS011;11702;50.856;4.348;2022-12-18T09:46:27;12.98;;;8.10;;
23068;SDS011;11702;50.856;4.348;2022-12-18T09:48:57;14.52;;;7.85;;
23068;SDS011;11702;50.856;4.348;2022-12-18T09:51:28;14.35;;;7.38;;
23068;SDS011;11702;50.856;4.348;2022-12-18T09:54:06;17.50;;;8.45;;
23068;SDS011;11702;50.856;4.348;2022-12-18T09:56:38;11.18;;;7.28;;
23068;SDS011;11702;50.856;4.348;2022-12-18T09:59:09;15.63;;;8.35;;
23068;SDS011;11702;50.856;4.348;2022-12-18T10:01:59;15.68;;;7.88;;
23068;SDS011;11702;50.856;4.348;2022-12-18T10:04:24;18.48;;;8.20;;
23068;SDS011;11702;50.856;4.348;2022-12-18T10:09:37;16.65;;;7.63;;
23068;SDS011;11702;50.856;4.348;2022-12-18T10:12:26;16.10;;;8.20;;
23068;SDS011;11702;50.856;4.348;2022-12-18T10:18:12;16.48;;;9.25;;
23068;SDS011;11702;50.856;4.348;2022-12-18T10:21:01;15.13;;;8.52;;
23068;SDS011;11702;50.856;4.348;2022-12-18T10:23:43;18.33;;;9.02;;
23068;SDS011;11702;50.856;4.348;2022-12-18T10:26:18;15.35;;;7.70;;
23068;SDS011;11702;50.856;4.348;2022-12-18T10:28:44;16.52;;;8.68;;
23068;SDS011;11702;50.856;4.348;2022-12-18T10:31:21;14.25;;;7.93;;
23068;SDS011;11702;50.856;4.348;2022-12-18T10:33:48;17.55;;;8.65;;
23068;SDS011;11702;50.856;4.348;2022-12-18T10:36:14;16.05;;;8.65;;
23068;SDS011;11702;50.856;4.348;2022-12-18T10:38:39;16.42;;;9.15;;
23068;SDS011;11702;50.856;4.348;2022-12-18T10:43:48;19.17;;;9.93;;
23068;SDS011;11702;50.856;4.348;2022-12-18T10:46:33;14.90;;;9.05;;
23068;SDS011;11702;50.856;4.348;2022-12-18T10:48:59;16.33;;;8.98;;
23068;SDS011;11702;50.856;4.348;2022-12-18T10:56:23;17.63;;;10.38;;
23068;SDS011;11702;50.856;4.348;2022-12-18T10:58:59;17.08;;;9.40;;
23068;SDS011;11702;50.856;4.348;2022-12-18T11:01:27;15.82;;;9.40;;
23068;SDS011;11702;50.856;4.348;2022-12-18T11:06:22;16.00;;;9.50;;
23068;SDS011;11702;50.856;4.348;2022-12-18T11:16:30;18.85;;;10.05;;
23068;SDS011;11702;50.856;4.348;2022-12-18T11:19:30;14.55;;;9.10;;
23068;SDS011;11702;50.856;4.348;2022-12-18T11:21:58;18.00;;;9.82;;
23068;SDS011;11702;50.856;4.348;2022-12-18T11:24:29;17.55;;;9.57;;
23068;SDS011;11702;50.856;4.348;2022-12-18T11:27:00;19.17;;;9.52;;
23068;SDS011;11702;50.856;4.348;2022-12-18T11:29:30;20.13;;;9.77;;
23068;SDS011;11702;50.856;4.348;2022-12-18T11:35:10;16.58;;;9.70;;
23068;SDS011;11702;50.856;4.348;2022-12-18T11:37:46;16.40;;;9.35;;
23068;SDS011;11702;50.856;4.348;2022-12-18T11:40:22;23.42;;;10.25;;
23068;SDS011;11702;50.856;4.348;2022-12-18T11:42:58;21.33;;;10.30;;
23068;SDS011;11702;50.856;4.348;2022-12-18T11:45:49;25.10;;;10.07;;
23068;SDS011;11702;50.856;4.348;2022-12-18T11:48:23;19.70;;;10.30;;
23068;SDS011;11702;50.856;4.348;2022-12-18T11:51:12;19.20;;;9.85;;
23068;SDS011;11702;50.856;4.348;2022-12-18T11:53:44;17.60;;;9.93;;
23068;SDS011;11702;50.856;4.348;2022-12-18T11:59:13;20.20;;;10.20;;
23068;SDS011;11702;50.856;4.348;2022-12-18T12:02:03;19.52;;;10.48;;
23068;SDS011;11702;50.856;4.348;2022-12-18T12:04:57;19.08;;;10.77;;
23068;SDS011;11702;50.856;4.348;2022-12-18T12:11:01;19.40;;;10.00;;
23068;SDS011;11702;50.856;4.348;2022-12-18T12:27:35;20.52;;;10.93;;
23068;SDS011;11702;50.856;4.348;2022-12-18T12:35:36;25.00;;;10.85;;
23068;SDS011;11702;50.856;4.348;2022-12-18T12:38:26;21.00;;;11.23;;
23068;SDS011;11702;50.856;4.348;2022-12-18T12:41:05;20.08;;;10.30;;
23068;SDS011;11702;50.856;4.348;2022-12-18T12:43:55;19.60;;;10.55;;
23068;SDS011;11702;50.856;4.348;2022-12-18T12:46:24;22.15;;;11.35;;
23068;SDS011;11702;50.856;4.348;2022-12-18T12:51:21;19.98;;;11.40;;
23068;SDS011;11702;50.856;4.348;2022-12-18T12:53:49;20.80;;;11.27;;
23068;SDS011;11702;50.856;4.348;2022-12-18T12:56:17;24.92;;;12.57;;
23068;SDS011;11702;50.856;4.348;2022-12-18T12:59:02;30.63;;;13.75;;
23068;SDS011;11702;50.856;4.348;2022-12-18T13:04:36;21.33;;;11.68;;
23068;SDS011;11702;50.856;4.348;2022-12-18T13:07:29;26.15;;;11.48;;
23068;SDS011;11702;50.856;4.348;2022-12-18T13:12:55;25.63;;;12.82;;
23068;SDS011;11702;50.856;4.348;2022-12-18T13:20:35;26.38;;;12.35;;
23068;SDS011;11702;50.856;4.348;2022-12-18T13:28:48;25.10;;;13.02;;
23068;SDS011;11702;50.856;4.348;2022-12-18T13:31:13;28.67;;;13.68;;
23068;SDS011;11702;50.856;4.348;2022-12-18T13:36:12;28.13;;;14.10;;
23068;SDS011;11702;50.856;4.348;2022-12-18T13:44:31;27.08;;;13.15;;
23068;SDS011;11702;50.856;4.348;2022-12-18T13:46:59;24.20;;;13.63;;
23068;SDS011;11702;50.856;4.348;2022-12-18T13:51:56;31.92;;;14.10;;
23068;SDS011;11702;50.856;4.348;2022-12-18T13:57:02;27.35;;;14.35;;
23068;SDS011;11702;50.856;4.348;2022-12-18T13:59:39;27.42;;;14.63;;
23068;SDS011;11702;50.856;4.348;2022-12-18T14:02:18;34.20;;;15.18;;
23068;SDS011;11702;50.856;4.348;2022-12-18T14:04:47;32.50;;;16.02;;
23068;SDS011;11702;50.856;4.348;2022-12-18T14:07:14;32.95;;;15.65;;
23068;SDS011;11702;50.856;4.348;2022-12-18T14:12:25;32.42;;;15.88;;
23068;SDS011;11702;50.856;4.348;2022-12-18T14:17:59;28.65;;;15.90;;
23068;SDS011;11702;50.856;4.348;2022-12-18T14:20:28;31.80;;;15.45;;
23068;SDS011;11702;50.856;4.348;2022-12-18T14:22:57;30.02;;;15.45;;
23068;SDS011;11702;50.856;4.348;2022-12-18T14:25:28;34.47;;;15.25;;
23068;SDS011;11702;50.856;4.348;2022-12-18T14:28:04;30.85;;;15.27;;
23068;SDS011;11702;50.856;4.348;2022-12-18T14:30:41;32.60;;;16.70;;
23068;SDS011;11702;50.856;4.348;2022-12-18T14:35:57;29.45;;;16.13;;
23068;SDS011;11702;50.856;4.348;2022-12-18T14:41:16;32.03;;;15.75;;
23068;SDS011;11702;50.856;4.348;2022-12-18T14:43:44;28.48;;;15.77;;
23068;SDS011;11702;50.856;4.348;2022-12-18T14:46:29;40.47;;;16.23;;
23068;SDS011;11702;50.856;4.348;2022-12-18T14:48:59;30.35;;;15.65;;
23068;SDS011;11702;50.856;4.348;2022-12-18T14:51:28;32.25;;;16.70;;
23068;SDS011;11702;50.856;4.348;2022-12-18T14:53:57;31.90;;;15.52;;
23068;SDS011;11702;50.856;4.348;2022-12-18T14:58:58;29.83;;;15.57;;
23068;SDS011;11702;50.856;4.348;2022-12-18T15:04:33;32.42;;;15.45;;
23068;SDS011;11702;50.856;4.348;2022-12-18T15:18:05;33.10;;;16.92;;
23068;SDS011;11702;50.856;4.348;2022-12-18T15:23:27;30.80;;;17.02;;
23068;SDS011;11702;50.856;4.348;2022-12-18T15:26:00;32.28;;;15.68;;
23068;SDS011;11702;50.856;4.348;2022-12-18T15:28:34;32.53;;;15.35;;
23068;SDS011;11702;50.856;4.348;2022-12-18T15:34:01;33.58;;;16.35;;
23068;SDS011;11702;50.856;4.348;2022-12-18T15:36:28;33.85;;;16.00;;
23068;SDS011;11702;50.856;4.348;2022-12-18T15:38:55;35.63;;;16.42;;
23068;SDS011;11702;50.856;4.348;2022-12-18T15:41:22;35.22;;;17.45;;
23068;SDS011;11702;50.856;4.348;2022-12-18T15:43:51;33.80;;;16.73;;
23068;SDS011;11702;50.856;4.348;2022-12-18T15:46:26;29.55;;;14.73;;
23068;SDS011;11702;50.856;4.348;2022-12-18T15:48:53;36.40;;;17.35;;
23068;SDS011;11702;50.856;4.348;2022-12-18T15:51:21;30.38;;;15.77;;
23068;SDS011;11702;50.856;4.348;2022-12-18T15:53:50;34.85;;;16.02;;
23068;SDS011;11702;50.856;4.348;2022-12-18T15:56:18;30.45;;;14.77;;
23068;SDS011;11702;50.856;4.348;2022-12-18T15:59:04;31.27;;;15.50;;
23068;SDS011;11702;50.856;4.348;2022-12-18T16:01:38;33.00;;;16.45;;
23068;SDS011;11702;50.856;4.348;2022-12-18T16:04:05;34.88;;;17.58;;
23068;SDS011;11702;50.856;4.348;2022-12-18T16:06:31;28.15;;;15.80;;
23068;SDS011;11702;50.856;4.348;2022-12-18T16:08:56;35.38;;;16.88;;
23068;SDS011;11702;50.856;4.348;2022-12-18T16:14:14;30.27;;;15.68;;
23068;SDS011;11702;50.856;4.348;2022-12-18T16:16:40;28.90;;;15.00;;
23068;SDS011;11702;50.856;4.348;2022-12-18T16:19:06;31.33;;;16.02;;
23068;SDS011;11702;50.856;4.348;2022-12-18T16:21:32;34.97;;;16.23;;
23068;SDS011;11702;50.856;4.348;2022-12-18T16:23:58;32.67;;;16.63;;
23068;SDS011;11702;50.856;4.348;2022-12-18T16:26:24;33.05;;;16.13;;
23068;SDS011;11702;50.856;4.348;2022-12-18T16:28:49;33.17;;;16.30;;
23068;SDS011;11702;50.856;4.348;2022-12-18T16:31:15;30.15;;;15.25;;
23068;SDS011;11702;50.856;4.348;2022-12-18T16:33:40;29.45;;;14.82;;
23068;SDS011;11702;50.856;4.348;2022-12-18T16:36:06;29.90;;;14.82;;
23068;SDS011;11702;50.856;4.348;2022-12-18T16:38:32;28.83;;;14.82;;
23068;SDS011;11702;50.856;4.348;2022-12-18T16:40:58;33.13;;;14.70;;
23068;SDS011;11702;50.856;4.348;2022-12-18T16:43:42;29.58;;;15.18;;
23068;SDS011;11702;50.856;4.348;2022-12-18T16:46:08;29.48;;;14.77;;
23068;SDS011;11702;50.856;4.348;2022-12-18T16:48:34;32.80;;;15.95;;
23068;SDS011;11702;50.856;4.348;2022-12-18T16:51:00;40.60;;;16.88;;
23068;SDS011;11702;50.856;4.348;2022-12-18T16:53:27;27.85;;;14.20;;
23068;SDS011;11702;50.856;4.348;2022-12-18T16:55:53;30.85;;;15.50;;
23068;SDS011;11702;50.856;4.348;2022-12-18T16:58:20;36.50;;;15.63;;
23068;SDS011;11702;50.856;4.348;2022-12-18T17:00:45;29.42;;;15.45;;
23068;SDS011;11702;50.856;4.348;2022-12-18T17:03:11;30.92;;;15.35;;
23068;SDS011;11702;50.856;4.348;2022-12-18T17:05:36;33.35;;;18.38;;
23068;SDS011;11702;50.856;4.348;2022-12-18T17:08:02;30.30;;;15.65;;